WEATHER DATA

YESTERDAY
Time Temp. Dewp. Hum. Wind dir Wind speed Wind gust Bar. 1h Prec. 24h Prec.
00:22 3.7 -3.4 58 0 0 1022.3 0.0000 0.0000
00:33 3.4 -3.6 58 0 0 1022.3 0.0000 0.0000
00:44 3.2 -3.6 59 0 0 1022.3 0.0000 0.0000
00:51 3.4 -3.4 59 0 0 1022.3 0.0000 0.0000
01:12 3.2 -3.8 58 0 0 1022.2 0.0000 0.0000
01:15 3.2 -3.6 59 0 0 1022.2 0.0000 0.0000
01:30 2.7 -3.6 61 0 0 1022.2 0.0000 0.0000
01:40 2.7 -3.6 61 0 0 1022.3 0.0000 0.0000
01:50 3 -3.3 61 0 0 1022.3 0.0000 0.0000
01:59 3 -3.5 60 0 0 1022.3 0.0000 0.0000
02:10 3 -3.5 60 0 0 1022.3 0.0000 0.0000
02:20 2.8 -3.5 61 0 0 1022.3 0.0000 0.0000
02:30 3 -3.3 61 0 0 1022.3 0.0000 0.0000
02:39 3 -3.5 60 0 0 1022.2 0.0000 0.0000
02:58 2.6 -3.7 61 0 0 1022 0.0000 0.0000
03:10 2.4 -3.8 61 0 0 1022 0.0000 0.0000
03:19 2.6 -3.7 61 0 0 1021.9 0.0000 0.0000
03:30 2.8 -3.5 61 0 0 1021.9 0.0000 0.0000
03:40 2.7 -3.8 60 0 0 1021.8 0.0000 0.0000
03:50 2.8 -3.7 60 0 0 1021.8 0.0000 0.0000
04:01 2.9 -3.6 60 0 0 1021.8 0.0000 0.0000
04:11 2.9 -3.6 60 0 0 1021.7 0.0000 0.0000
04:21 2.8 -3.7 60 0 0 1021.7 0.0000 0.0000
04:32 2.3 -3.9 61 0 0 1021.6 0.0000 0.0000
04:39 2 -4.2 61 0 0 1021.6 0.0000 0.0000
04:51 1.8 -4.2 62 0 0 1021.5 0.0000 0.0000
05:02 1.3 -4.4 63 0 0 1021.5 0.0000 0.0000
05:11 1.3 -4.2 64 0 0 1021.4 0.0000 0.0000
05:31 1.4 -4.1 64 0 0 1021.4 0.0000 0.0000
05:40 1 -4.5 64 0 0 1021.3 0.0000 0.0000
05:47 0.9 -4.2 66 0 0 1021.2 0.0000 0.0000
06:11 1 -4.1 66 0 0 1021.2 0.0000 0.0000
06:30 0.4 -4.6 66 0 0 1021.1 0.0000 0.0000
06:33 0.4 -4.4 67 0 0 1021.1 0.0000 0.0000
06:52 0.5 -4.3 67 0 0 1021 0.0000 0.0000
07:00 0.7 -4.2 67 0 0 1020.9 0.0000 0.0000
07:08 0.9 -4 67 0 0 1020.9 0.0000 0.0000
07:24 1 -4.3 65 0 0 1020.9 0.0000 0.0000
07:52 0.8 -4.1 67 0 0 1021 0.0000 0.0000
08:01 0.9 -4 67 0 0 1021 0.0000 0.0000
08:42 3.2 -2.4 65 0 0 1020.9 0.0000 0.0000
08:49 3.7 -2.4 63 0 0 1020.9 0.0000 0.0000
09:02 4.8 -2 60 0 0 1020.6 0.0000 0.0000
09:11 5.1 -2 59 0 0 1020.6 0.0000 0.0000
09:22 6.2 -1.3 58 0 0 1020.6 0.0000 0.0000
09:32 7.1 -0.9 56 0 0 1020.6 0.0000 0.0000
09:41 7.7 -0.7 55 0 0 1020.5 0.0000 0.0000
09:52 8.8 -0.2 53 0 0 1020.5 0.0000 0.0000
10:00 9.4 -0.2 51 0 0 1020.4 0.0000 0.0000
10:13 10.4 0.4 50 0 0 1020.3 0.0000 0.0000
10:19 10.9 0.9 50 0 0 1020.3 0.0000 0.0000
10:33 11.6 1 48 0 0 1020.3 0.0000 0.0000
10:43 12.5 1.2 46 0 0 1020.2 0.0000 0.0000
10:53 13.2 1.5 45 0 0 1020.2 0.0000 0.0000
11:03 13.7 1.7 44 0 0 1020.3 0.0000 0.0000
11:13 14.6 1.8 42 0 0 1020.2 0.0000 0.0000
11:23 14.8 1.7 41 0 0 1020.2 0.0000 0.0000
11:34 15.3 2.1 41 0 0 1020.1 0.0000 0.0000
11:43 15.7 1.8 39 0 0 1020.1 0.0000 0.0000
11:53 16.3 1.6 37 0 0 1020 0.0000 0.0000
12:04 17.3 2.1 36 0 0 1019.9 0.0000 0.0000
12:14 18.1 2.4 35 0 0 1019.8 0.0000 0.0000
12:23 18.7 3.3 36 0 0 1019.7 0.0000 0.0000
12:33 19.3 2.6 33 0 0 1019.4 0.0000 0.0000
12:44 19.6 1.6 30 0 0 1019.3 0.0000 0.0000
12:54 19 1 30 0 0 1019.2 0.0000 0.0000
13:03 18 1.5 33 0 0 1019.1 0.0000 0.0000
13:14 17.7 2.8 37 0 0 1019 0.0000 0.0000
13:24 17.4 3.3 39 0 0 1018.9 0.0000 0.0000
13:33 17 3.3 40 0 0 1018.8 0.0000 0.0000
13:43 16.9 3.2 40 0 0 1018.6 0.0000 0.0000
14:12 16.4 3.1 41 0 0 1018.3 0.0000 0.0000
15:08 16 3.1 42 0 0 1018.2 0.0000 0.0000
15:17 16.1 2.9 41 0 0 1018.2 0.0000 0.0000
15:27 15.9 2.7 41 0 0 1018.2 0.0000 0.0000
15:37 15.3 2.5 42 0 0 1018.2 0.0000 0.0000
15:46 15.2 2.7 43 0 0 1018.2 0.0000 0.0000
15:57 15 2.5 43 0 0 1018.2 0.0000 0.0000
16:07 14.9 2.4 43 0 0 1018.1 0.0000 0.0000
16:18 14.4 2.3 44 0 0 1018.1 0.0000 0.0000
16:27 14 1.6 43 0 0 1018.1 0.0000 0.0000
16:37 12.8 1.5 46 0 0 1018.1 0.0000 0.0000
16:47 11.7 1.1 48 0 0 1018.2 0.0000 0.0000
17:08 10.4 0.7 51 0 0 1018.3 0.0000 0.0000
17:17 9.8 0.4 52 0 0 1018.3 0.0000 0.0000
17:28 9.3 0.2 53 0 0 1018.3 0.0000 0.0000
17:38 9 0.2 54 0 0 1018.3 0.0000 0.0000
17:48 8.8 0.3 55 0 0 1018.5 0.0000 0.0000
17:58 8.5 0 55 0 0 1018.5 0.0000 0.0000
18:08 7.9 -0.1 57 0 0 1018.5 0.0000 0.0000
18:18 7.3 -0.4 58 0 0 1018.6 0.0000 0.0000
18:28 6.8 -0.6 59 0 0 1018.6 0.0000 0.0000
18:38 6.4 -0.5 61 0 0 1018.7 0.0000 0.0000
18:48 6.3 -0.6 61 0 0 1018.8 0.0000 0.0000
18:58 6.5 -0.2 62 0 0 1018.9 0.0000 0.0000
19:08 6.3 -0.6 61 0 0 1019 0.0000 0.0000
19:17 5.9 -0.7 62 0 0 1019 0.0000 0.0000
19:28 5.6 -0.8 63 0 0 1019.1 0.0000 0.0000
19:38 5.5 -0.7 64 0 0 1019.2 0.0000 0.0000
19:49 5.5 -0.7 64 0 0 1019.1 0.0000 0.0000
19:59 5.4 -0.8 64 0 0 1019.1 0.0000 0.0000
20:08 5.3 -0.8 64 0 0 1019.2 0.0000 0.0000
20:19 5.2 -0.9 64 0 0 1019.2 0.0000 0.0000
20:29 4.9 -1.4 63 0 0 1019.2 0.0000 0.0000
20:39 4.4 -1.6 64 0 0 1019.2 0.0000 0.0000
20:49 4.2 -1.4 66 0 0 1019.3 0.0000 0.0000
20:59 4 -1.6 66 0 0 1019.3 0.0000 0.0000
21:09 3.9 -1.6 66 0 0 1019.4 0.0000 0.0000
21:19 4.1 -1.5 66 0 0 1019.4 0.0000 0.0000
21:29 4.3 -1.5 65 0 0 1019.4 0.0000 0.0000
21:40 4.5 -1.5 64 0 0 1019.3 0.0000 0.0000
21:49 4.7 -1.3 64 0 0 1019.3 0.0000 0.0000
21:59 4.8 -1.4 63 0 0 1019.3 0.0000 0.0000
22:10 4.4 -1.8 63 0 0 1019.3 0.0000 0.0000
22:20 3.8 -2.1 64 0 0 1019.3 0.0000 0.0000
22:30 3.5 -2.2 65 0 0 1019.3 0.0000 0.0000
22:40 3.3 -2.2 66 0 0 1019.3 0.0000 0.0000
22:50 3.1 -2.3 66 0 0 1019.3 0.0000 0.0000
22:59 2.9 -2.3 67 0 0 1019.3 0.0000 0.0000
23:09 2.7 -2.5 67 0 0 1019.3 0.0000 0.0000
23:19 2.4 -2.4 69 0 0 1019.3 0.0000 0.0000
23:29 2.5 -2.3 69 0 0 1019.2 0.0000 0.0000
23:39 2.3 -2.3 70 0 0 1019.2 0.0000 0.0000
23:50 2.3 -2.1 71 0 0 1019.2 0.0000 0.0000

DAY STATISTIC

2019-02-18
TEMPERATURE
AVERAGE
7.2
HIGH
19.6
12:44
LOW
0.4
06:30
PRESSURE
AVERAGE
1020.1
HIGH
1022.3
00:22
LOW
1018.1
16:07
DEWPOINT
AVERAGE
-1.1
HIGH
3.3
12:23
LOW
-4.6
06:30
HUMIDITY
AVERAGE
56
HIGH
71
23:50
LOW
30
12:44
WIND SPEED
AVERAGE
0.0
HIGH
0.0
17:10
WIND GUST
AVERAGE
0.0
HIGH
0.0
17:10
WIND DIRECTION
PREVAILING
%
PRECIPITATION
RAIN HOUR
0.0
RAIN DAY
0.0
TEMPERATURE (°C)
LOW
0.4
HIGH
19.6
AVERAGE
7.2
PRESSURE (hpa)
LOW
1018.1
HIGH
1022.3
AVERAGE
1020.1
DEVICE